createdAt,value
2018-01-27T15:40:30.056Z,22.13
2018-01-27T15:42:58.338Z,24.73
2018-01-27T15:45:26.605Z,24.00
2018-01-27T15:47:54.888Z,23.60
2018-01-27T15:50:23.931Z,27.20
2018-01-27T15:52:52.200Z,27.20
2018-01-27T15:55:20.472Z,26.40
2018-01-27T15:57:48.776Z,26.90
2018-01-27T16:00:17.051Z,26.70
2018-01-27T16:02:45.336Z,25.77
2018-01-27T16:05:13.600Z,26.58
2018-01-27T16:07:42.671Z,30.30
2018-01-27T16:10:10.939Z,28.17
2018-01-27T16:12:39.226Z,30.92
2018-01-27T16:15:07.500Z,29.97
2018-01-27T16:17:35.789Z,29.87
2018-01-27T16:20:04.049Z,29.05
2018-01-27T16:22:32.326Z,28.92
2018-01-27T16:25:00.601Z,30.10
2018-01-27T16:27:28.871Z,31.60
2018-01-27T16:29:57.149Z,30.45
2018-01-27T16:32:25.411Z,30.27
2018-01-27T16:34:54.464Z,28.48
2018-01-27T16:37:22.732Z,31.70
2018-01-27T16:39:51.014Z,29.98
2018-01-27T16:42:19.276Z,30.30
2018-01-27T16:44:48.316Z,31.30
2018-01-27T16:47:16.584Z,31.80
2018-01-27T16:49:44.868Z,32.15
2018-01-27T16:52:13.897Z,31.85
2018-01-27T16:54:42.172Z,31.20
2018-01-27T16:57:10.459Z,31.25
2018-01-27T16:59:38.750Z,33.90
2018-01-27T17:02:07.052Z,32.95
2018-01-27T17:04:40.253Z,30.85
2018-01-27T17:07:08.515Z,32.55
2018-01-27T17:09:37.564Z,31.80
2018-01-27T17:12:06.539Z,33.00
2018-01-27T17:14:34.812Z,29.33
2018-01-27T17:17:03.839Z,29.45
2018-01-27T17:19:32.108Z,28.15
2018-01-27T17:22:01.148Z,28.40
2018-01-27T17:24:29.474Z,29.17
2018-01-27T17:26:57.691Z,29.52
2018-01-27T17:29:26.740Z,29.75
2018-01-27T17:31:55.016Z,28.80
2018-01-27T17:34:23.301Z,29.95
2018-01-27T17:36:53.540Z,29.83
2018-01-27T17:39:21.807Z,30.65
2018-01-27T17:41:50.076Z,28.62
2018-01-27T17:44:19.119Z,30.37
2018-01-27T17:46:47.390Z,29.05
2018-01-27T17:49:15.680Z,30.73
2018-01-27T17:51:43.955Z,29.33
2018-01-27T17:54:13.005Z,30.23
2018-01-27T17:56:41.284Z,27.10
2018-01-27T17:59:09.562Z,25.33
2018-01-27T18:01:37.847Z,25.62
2018-01-27T18:04:06.124Z,27.55
2018-01-27T18:06:35.161Z,29.75
2018-01-27T18:09:03.439Z,27.55
2018-01-27T18:11:31.710Z,30.08
2018-01-27T18:14:00.744Z,29.60
2018-01-27T18:16:29.036Z,30.02
2018-01-27T18:18:57.308Z,31.02
2018-01-27T18:21:25.563Z,29.50
2018-01-27T18:23:54.604Z,27.23
2018-01-27T18:26:22.873Z,28.77
2018-01-27T18:28:51.906Z,30.50
2018-01-27T18:31:20.191Z,28.45
2018-01-27T18:33:48.467Z,28.20
2018-01-27T18:36:16.734Z,26.45
2018-01-27T18:38:46.501Z,28.70
2018-01-27T18:41:14.763Z,26.08
2018-01-27T18:43:47.220Z,27.33
2018-01-27T18:46:15.484Z,28.65
2018-01-27T18:48:44.755Z,27.50
2018-01-27T18:51:13.052Z,27.35
2018-01-27T18:53:41.334Z,27.52
2018-01-27T18:56:09.598Z,28.85
2018-01-27T18:58:38.968Z,29.50
2018-01-27T19:01:07.238Z,30.95
2018-01-27T19:03:35.508Z,30.05
2018-01-27T19:06:03.777Z,30.90
2018-01-27T19:08:32.828Z,31.87
2018-01-27T19:11:01.087Z,32.10
2018-01-27T19:13:29.363Z,33.95
2018-01-27T19:15:57.623Z,34.30
2018-01-27T19:18:25.908Z,30.98
2018-01-27T19:20:54.196Z,34.05
2018-01-27T19:23:22.473Z,33.00
2018-01-27T19:25:50.762Z,31.27
2018-01-27T19:28:19.019Z,32.10
2018-01-27T19:30:47.291Z,31.50
2018-01-27T19:33:15.551Z,31.70
2018-01-27T19:35:44.033Z,31.35
2018-01-27T19:38:12.302Z,32.67
2018-01-27T19:40:40.571Z,29.92
2018-01-27T19:43:08.836Z,31.27
2018-01-27T19:45:37.883Z,28.65
2018-01-27T19:48:06.158Z,31.37
2018-01-27T19:50:34.428Z,29.65
2018-01-27T19:53:02.709Z,30.90
2018-01-27T19:55:30.993Z,32.67
2018-01-27T19:58:00.032Z,30.40
2018-01-27T20:00:29.075Z,29.60
2018-01-27T20:02:57.352Z,31.58
2018-01-27T20:05:25.633Z,31.10
2018-01-27T20:07:53.899Z,31.60
2018-01-27T20:10:22.747Z,29.87
2018-01-27T20:12:51.015Z,30.90
2018-01-27T20:15:19.287Z,31.95
2018-01-27T20:17:47.556Z,31.05
2018-01-27T20:20:15.845Z,32.95
2018-01-27T20:22:44.380Z,31.00
2018-01-27T20:25:12.668Z,32.33
2018-01-27T20:27:40.934Z,29.70
2018-01-27T20:30:09.208Z,29.85
2018-01-27T20:32:37.473Z,31.87
2018-01-27T20:35:09.953Z,31.60
2018-01-27T20:37:38.269Z,28.98
2018-01-27T20:40:06.543Z,30.12
2018-01-27T20:42:34.817Z,29.87
2018-01-27T20:45:03.864Z,31.45
2018-01-27T20:47:32.131Z,31.95
2018-01-27T20:50:00.417Z,33.40
2018-01-27T20:52:29.444Z,33.60
2018-01-27T20:54:57.724Z,34.40
2018-01-27T20:57:26.031Z,34.25
2018-01-27T20:59:54.330Z,33.58
2018-01-27T21:02:22.636Z,30.83
2018-01-27T21:04:50.926Z,31.30
2018-01-27T21:07:19.210Z,31.17
2018-01-27T21:09:47.500Z,29.15
2018-01-27T21:12:15.772Z,31.42
2018-01-27T21:17:44.790Z,28.10
2018-01-27T21:20:13.074Z,26.60
2018-01-27T21:22:41.355Z,25.02
2018-01-27T21:25:09.641Z,25.30
2018-01-27T21:27:37.916Z,27.42
2018-01-27T21:30:06.968Z,26.52
2018-01-27T21:32:35.245Z,25.50
2018-01-27T21:35:03.525Z,24.92
2018-01-27T21:37:31.799Z,21.67
2018-01-27T21:43:12.720Z,20.40
2018-01-27T21:45:41.805Z,20.42
2018-01-27T21:48:10.068Z,20.70
2018-01-27T21:50:41.950Z,19.75
2018-01-27T21:53:10.194Z,19.27
2018-01-27T21:55:38.459Z,20.05
2018-01-27T21:58:08.609Z,20.80
2018-01-27T22:00:36.896Z,19.02
2018-01-27T22:03:05.187Z,19.92
2018-01-27T22:05:39.604Z,19.48
2018-01-27T22:08:11.909Z,18.90
2018-01-27T22:10:40.187Z,18.73
2018-01-27T22:13:08.466Z,19.70
2018-01-27T22:15:37.504Z,20.10
2018-01-27T22:18:05.779Z,19.90
2018-01-27T22:20:34.985Z,20.70
2018-01-27T22:23:03.343Z,20.05
2018-01-27T22:25:59.259Z,21.12
2018-01-27T22:28:27.533Z,19.58
2018-01-27T22:30:55.852Z,20.45
2018-01-27T22:33:24.134Z,19.45
2018-01-27T22:35:59.725Z,19.10
2018-01-27T22:38:28.760Z,19.40
2018-01-27T22:41:02.969Z,20.12
2018-01-27T22:43:31.236Z,19.37
2018-01-27T22:46:13.523Z,18.12
2018-01-27T22:48:49.621Z,17.70
2018-01-27T22:51:18.656Z,16.45
2018-01-27T22:53:47.852Z,17.15
2018-01-27T22:56:16.132Z,15.80
2018-01-27T22:59:06.713Z,17.62
2018-01-27T23:01:35.002Z,15.45
2018-01-27T23:04:03.272Z,14.57
2018-01-27T23:06:31.557Z,14.43
2018-01-27T23:09:12.761Z,14.57
2018-01-27T23:11:46.269Z,15.45
2018-01-27T23:14:14.547Z,13.30
2018-01-27T23:16:42.837Z,13.57
2018-01-27T23:19:11.132Z,14.50
2018-01-27T23:21:39.407Z,14.90
2018-01-27T23:24:08.605Z,14.13
2018-01-27T23:26:48.344Z,13.95
2018-01-27T23:29:16.624Z,15.15
2018-01-27T23:31:45.674Z,15.45
2018-01-27T23:34:39.686Z,14.10
2018-01-27T23:37:18.451Z,15.82
2018-01-27T23:39:49.447Z,16.23
2018-01-27T23:42:17.724Z,14.93
2018-01-27T23:44:46.005Z,16.83
2018-01-27T23:47:14.288Z,15.90
2018-01-27T23:49:44.336Z,14.77
2018-01-27T23:52:12.632Z,14.73
2018-01-27T23:54:40.908Z,16.12
2018-01-27T23:57:09.193Z,14.60
2018-01-27T23:59:42.607Z,15.45
